Latest Weather Observations for Cape Grim

IDT60801

Issued at 7:32 pm EST Tuesday 28 June 2016 (issued every 30 minutes, with the page automatically refreshed every 10 minutes)

About weather observations | Map of weather stations | Latest weather observations for TAS | Other Formats
Station Details ID: 091331 Name: CAPE GRIM Lat: -40.68 Lon: 144.69 Height: 86.0 m
Data from the previous 72 hours. | See also: Recent months at Cape Grim
Date/Time
EST
Temp
°C
App
Temp
°C
Dew
Point
°C
Rel
Hum
%
Delta-T
°C
Wind Press
QNH
hPa
Press
MSL
hPa
Rain since
9am
mm
Dir  Spd
km/h
Gust
km/h
Spd
kts
Gust
kts
28/07:30pm 13.6 7.1 10.2 80 1.8 W 35 50 19 27 1020.1 1020.2 0.0
28/07:00pm 13.5 5.8 10.1 80 1.8 W 41 52 22 28 1019.8 1019.9 0.0
28/06:30pm 13.5 6.2 10.3 81 1.7 W 39 52 21 28 1019.6 1019.7 0.0
28/06:00pm 13.6 7.6 10.8 83 1.5 W 33 48 18 26 1019.4 1019.5 0.0
28/05:34pm 13.4 6.5 10.4 82 1.6 W 37 56 20 30 1019.3 1019.3 0.0
28/05:30pm 13.5 7.0 10.5 82 1.6 W 35 46 19 25 1019.3 1019.3 0.0
28/05:11pm 13.4 6.5 10.4 82 1.6 W 37 56 20 30 1019.1 1019.1 0.0
28/05:00pm 13.5 5.8 10.3 81 1.7 W 41 52 22 28 1019.1 1019.1 0.0
28/04:30pm 13.4 6.1 10.2 81 1.7 W 39 56 21 30 1018.9 1018.9 0.0
28/04:00pm 13.7 6.5 10.7 82 1.6 W 39 54 21 29 1018.8 1018.8 0.0
28/03:30pm 13.9 6.7 10.5 80 1.8 W 39 56 21 30 1018.7 1018.7 0.0
28/03:19pm 13.6 7.1 10.2 80 1.8 W 35 54 19 29 1018.6 1018.6 0.0
28/03:00pm 13.6 7.5 10.4 81 1.7 W 33 46 18 25 1018.6 1018.6 0.0
28/02:30pm 13.5 7.0 10.5 82 1.6 W 35 54 19 29 1018.3 1018.3 0.0
28/02:00pm 13.8 6.8 9.8 77 2.1 W 37 57 20 31 1018.2 1018.2 0.0
28/01:55pm 13.7 6.2 9.6 76 2.1 W 39 57 21 31 1018.1 1018.1 0.0
28/01:30pm 13.8 6.5 10.2 79 1.9 W 39 50 21 27 1018.1 1018.1 0.0
28/01:01pm 13.7 7.6 10.3 80 1.8 W 33 52 18 28 1018.4 1018.4 0.0
28/01:00pm 13.5 6.9 9.9 79 1.9 W 35 52 19 28 1018.4 1018.4 0.0
28/12:59pm 13.6 7.0 10.0 79 1.9 W 35 54 19 29 1018.4 1018.4 0.0
28/12:30pm 13.5 6.2 10.1 80 1.8 W 39 52 21 28 1018.4 1018.4 0.0
28/12:24pm 13.5 7.4 10.5 82 1.6 W 33 52 18 28 1018.5 1018.5 0.0
28/12:00pm 13.6 6.3 10.2 80 1.8 W 39 52 21 28 1018.4 1018.4 0.0
28/11:30am 13.2 5.9 10.2 82 1.6 W 39 50 21 27 1018.6 1018.6 0.0
28/11:00am 13.2 6.2 11.1 87 1.1 W 39 50 21 27 1018.7 1018.7 0.0
28/10:30am 13.5 5.8 10.1 80 1.8 W 41 54 22 29 1018.6 1018.6 0.0
28/10:00am 13.7 6.5 10.5 81 1.7 W 39 48 21 26 1018.4 1018.4 0.0
28/09:47am 13.2 6.7 10.4 83 1.5 W 35 54 19 29 1018.4 1018.4 0.0
28/09:30am 13.1 6.3 10.6 85 1.3 W 37 44 20 24 1018.1 1018.1 0.0
28/09:10am 12.7 5.3 9.9 83 1.4 W 39 59 21 32 1017.9 1017.9 0.0
28/09:00am 12.9 6.0 10.3 84 1.3 W 37 54 20 29 1017.9 1017.9 1.0
28/08:51am 12.8 6.3 10.2 84 1.3 W 35 54 19 29 1017.8 1017.8 1.0
28/08:30am 13.1 5.3 9.7 80 1.7 W 41 54 22 29 1017.6 1017.7 1.0
28/08:10am 13.0 6.3 9.6 80 1.7 W 35 54 19 29 1017.4 1017.5 1.0
28/08:00am 13.0 5.5 9.4 79 1.8 W 39 50 21 27 1017.3 1017.4 1.0
28/07:30am 12.8 4.9 9.3 79 1.8 W 41 52 22 28 1017.0 1017.1 1.0
28/07:00am 12.9 5.0 9.2 78 1.9 W 41 54 22 29 1016.7 1016.8 1.0
28/06:43am 13.0 5.1 9.4 79 1.8 W 41 59 22 32 1016.5 1016.6 1.0
28/06:30am 12.8 4.9 9.3 79 1.8 W 41 50 22 27 1016.3 1016.4 1.0
28/06:00am 12.9 4.6 9.5 80 1.7 W 43 54 23 29 1016.1 1016.2 1.0
28/05:30am 12.9 5.0 9.4 79 1.8 W 41 54 22 29 1015.8 1015.9 1.0
28/05:00am 12.8 5.3 9.4 80 1.7 W 39 52 21 28 1015.6 1015.7 1.0
28/04:30am 12.9 5.8 9.4 79 1.8 W 37 50 20 27 1015.5 1015.6 1.0
28/04:00am 12.8 4.9 9.3 79 1.8 W 41 54 22 29 1015.6 1015.7 1.0
28/03:30am 12.9 4.5 9.0 77 2.0 W 43 56 23 30 1015.5 1015.6 1.0
28/03:00am 12.8 4.8 8.9 77 2.0 W 41 57 22 31 1015.7 1015.8 1.0
28/02:30am 12.7 4.6 8.8 77 2.0 WNW 41 52 22 28 1015.6 1015.7 1.0
28/02:00am 12.7 4.7 9.0 78 1.9 WNW 41 50 22 27 1015.7 1015.8 1.0
28/01:30am 12.7 4.6 8.6 76 2.1 W 41 54 22 29 1015.5 1015.6 1.0
28/01:00am 12.5 4.3 8.4 76 2.0 W 41 52 22 28 1015.6 1015.7 1.0
28/12:30am 12.4 4.6 8.1 75 2.1 W 39 52 21 28 1015.5 1015.6 1.0
28/12:00am 11.9 3.7 8.0 77 1.9 WNW 41 54 22 29 1015.7 1015.8 1.0
 
Date/Time
EST
Temp
°C
App
Temp
°C
Dew
Point
°C
Rel
Hum
%
Delta-T
°C
Wind Press
QNH
hPa
Press
MSL
hPa
Rain since
9am
mm
Dir  Spd
km/h
Gust
km/h
Spd
kts
Gust
kts
27/11:30pm 12.5 5.2 8.6 77 1.9 W 37 48 20 26 1015.7 1015.8 1.0
27/11:19pm 12.0 4.3 8.7 80 1.6 W 39 57 21 31 1015.7 1015.8 1.0
27/11:00pm 12.5 4.3 8.2 75 2.1 WNW 41 56 22 30 1015.6 1015.7 1.0
27/10:30pm 12.6 4.4 8.3 75 2.1 W 41 56 22 30 1015.7 1015.8 1.0
27/10:10pm 12.2 5.1 8.1 76 2.0 W 35 56 19 30 1015.5 1015.6 1.0
27/10:00pm 11.3 3.7 7.6 78 1.8 W 37 50 20 27 1015.7 1015.8 1.0
27/09:30pm 12.3 3.7 6.6 68 2.7 W 41 54 22 29 1015.6 1015.7 1.0
27/09:00pm 12.1 4.4 7.0 71 2.5 W 37 48 20 26 1015.7 1015.8 1.0
27/08:30pm 10.9 5.9 8.1 83 1.4 WNW 24 32 13 17 1015.7 1015.8 0.8
27/08:14pm 10.6 4.0 7.7 82 1.4 WNW 32 50 17 27 1015.7 1015.8 0.8
27/08:00pm 11.2 4.9 7.3 77 1.9 W 30 46 16 25 1015.6 1015.7 0.8
27/07:30pm 10.5 4.4 8.4 87 1.0 WNW 30 37 16 20 1015.6 1015.7 0.8
27/07:00pm 10.9 3.4 8.0 82 1.4 W 37 56 20 30 1015.4 1015.5 0.8
27/06:52pm 11.6 4.0 7.5 76 2.0 W 37 56 20 30 1015.1 1015.2 0.8
27/06:30pm 11.8 4.3 6.3 69 2.6 W 35 46 19 25 1015.0 1015.1 0.8
27/06:00pm 11.9 5.4 4.9 62 3.2 W 28 37 15 20 1014.8 1014.9 0.8
27/05:30pm 11.7 5.6 6.8 72 2.3 W 28 43 15 23 1014.4 1014.5 0.8
27/05:00pm 11.2 3.8 6.7 74 2.1 W 35 48 19 26 1014.2 1014.3 0.8
27/04:30pm 11.3 4.3 6.0 70 2.5 W 32 44 17 24 1014.1 1014.2 0.8
27/04:00pm 11.7 5.7 5.3 65 3.0 W 26 37 14 20 1014.0 1014.1 0.8
27/03:30pm 12.0 6.0 5.2 63 3.1 W 26 35 14 19 1013.9 1014.0 0.8
27/03:00pm 11.9 5.9 5.3 64 3.1 W 26 44 14 24 1013.7 1013.8 0.8
27/02:30pm 10.5 5.2 6.6 77 1.8 W 24 44 13 24 1013.9 1014.0 0.8
27/02:00pm 11.6 6.7 6.7 72 2.3 WSW 22 43 12 23 1013.7 1013.8 0.0
27/01:30pm 11.6 7.1 5.9 68 2.7 W 19 28 10 15 1013.7 1013.8 0.0
27/01:00pm 11.1 6.7 7.2 77 1.9 WNW 20 30 11 16 1013.8 1013.9 0.0
27/12:30pm 11.6 6.8 5.7 67 2.8 W 20 33 11 18 1014.0 1014.1 0.0
27/12:00pm 12.0 6.4 5.6 65 3.0 W 24 39 13 21 1014.2 1014.3 0.0
27/11:30am 11.9 7.8 6.0 67 2.8 W 17 22 9 12 1014.3 1014.4 0.0
27/11:00am 11.8 7.4 6.5 70 2.5 W 19 30 10 16 1014.4 1014.5 0.0
27/10:30am 11.7 8.2 5.6 66 2.8 WSW 13 24 7 13 1014.4 1014.5 0.0
27/10:00am 11.6 7.7 5.5 66 2.8 WSW 15 26 8 14 1014.2 1014.3 0.0
27/09:30am 11.4 6.2 5.7 68 2.7 SW 22 30 12 16 1014.1 1014.2 0.0
27/09:00am 11.3 6.8 6.0 70 2.5 WSW 19 32 10 17 1013.9 1014.0 15.4
27/08:30am 10.8 7.0 6.0 72 2.2 WSW 15 28 8 15 1013.5 1013.6 15.4
27/08:00am 10.2 3.3 6.5 78 1.7 SW 32 44 17 24 1013.4 1013.5 15.4
27/07:30am 10.9 6.0 5.0 67 2.7 WSW 20 32 11 17 1013.1 1013.2 15.4
27/07:00am 10.9 5.3 5.2 68 2.6 SW 24 35 13 19 1012.7 1012.8 15.4
27/06:30am 10.9 5.9 4.8 66 2.8 WSW 20 32 11 17 1012.4 1012.5 15.4
27/06:00am 10.9 4.6 5.7 70 2.4 SW 28 35 15 19 1012.1 1012.2 15.4
27/05:30am 10.9 4.2 5.4 69 2.5 SW 30 37 16 20 1011.7 1011.8 15.4
27/05:00am 11.1 4.2 6.6 74 2.1 SW 32 39 17 21 1011.4 1011.5 15.4
27/04:30am 11.0 5.3 6.6 74 2.1 SW 26 33 14 18 1011.3 1011.4 15.4
27/04:00am 10.9 4.4 6.5 74 2.1 SW 30 37 16 20 1011.3 1011.4 15.4
27/03:30am 10.8 6.2 8.2 84 1.3 SW 22 32 12 17 1011.2 1011.3 15.4
27/03:00am 10.6 6.1 8.4 86 1.1 SSW 22 30 12 16 1011.1 1011.2 15.4
27/02:30am 10.5 5.3 8.8 89 0.8 SW 26 37 14 20 1011.0 1011.1 15.4
27/02:12am 10.6 5.1 9.0 90 0.8 SW 28 39 15 21 1011.0 1011.1 15.4
27/02:00am 10.6 7.2 9.0 90 0.8 SW 17 20 9 11 1010.9 1011.0 15.4
27/01:30am 10.6 7.6 9.4 92 0.6 WSW 15 22 8 12 1010.9 1011.0 15.4
27/01:16am 10.5 5.1 9.6 94 0.5 NW 28 39 15 21 1010.9 1011.0 15.2
27/01:00am 10.8 3.7 9.7 93 0.6 NNW 37 46 20 25 1010.7 1010.8 14.8
27/12:45am 10.8 3.4 9.7 93 0.6 NW 39 52 21 28 1010.9 1011.0 14.0
27/12:30am 10.7 3.2 9.5 92 0.6 NW 39 54 21 29 1011.0 1011.1 13.0
27/12:14am 10.6 4.2 9.4 92 0.6 NNW 33 48 18 26 1011.2 1011.3 12.6
27/12:09am 10.5 6.2 9.4 93 0.6 NW 22 48 12 26 1011.3 1011.4 12.2
27/12:00am 9.4 5.4 8.2 92 0.6 WNW 19 26 10 14 1011.4 1011.5 11.6
 
Date/Time
EST
Temp
°C
App
Temp
°C
Dew
Point
°C
Rel
Hum
%
Delta-T
°C
Wind Press
QNH
hPa
Press
MSL
hPa
Rain since
9am
mm
Dir  Spd
km/h
Gust
km/h
Spd
kts
Gust
kts
26/11:35pm 9.1 3.2 7.7 91 0.7 WNW 28 39 15 21 1011.6 1011.7 7.6
26/11:30pm 9.3 3.1 7.7 90 0.8 WNW 30 39 16 21 1011.8 1011.9 6.4
26/11:13pm 9.6 1.9 7.2 85 1.1 WNW 37 50 20 27 1011.7 1011.8 2.0
26/11:07pm 11.1 3.0 8.8 86 1.1 NW 41 54 22 29 1011.6 1011.7 0.2
26/11:00pm 11.2 2.7 8.4 83 1.4 NW 43 57 23 31 1011.5 1011.6 0.0
26/10:44pm 11.6 3.0 8.3 80 1.6 NW 43 61 23 33 1011.2 1011.3 0.0
26/10:30pm 11.5 2.6 7.8 78 1.8 NNW 44 59 24 32 1011.2 1011.3 0.0
26/10:23pm 11.6 2.8 7.9 78 1.8 NNW 44 63 24 34 1011.3 1011.4 0.0
26/10:00pm 11.6 2.3 7.7 77 1.9 NNW 46 59 25 32 1011.4 1011.5 0.0
26/09:30pm 11.6 2.7 7.7 77 1.9 NNW 44 54 24 29 1011.5 1011.6 0.0
26/09:00pm 11.8 3.1 7.9 77 1.9 NNW 43 56 23 30 1011.8 1011.9 0.0
26/08:30pm 11.5 2.5 7.4 76 2.0 NNW 44 54 24 29 1012.0 1012.1 0.0
26/08:00pm 11.1 2.1 7.2 77 1.9 NNW 44 50 24 27 1012.2 1012.3 0.0
26/07:30pm 11.1 2.8 7.6 79 1.7 NNW 41 50 22 27 1012.3 1012.4 0.0
26/07:00pm 11.0 2.6 7.5 79 1.7 NNW 41 48 22 26 1012.4 1012.5 0.0
26/06:30pm 10.9 2.8 7.0 77 1.9 NNW 39 46 21 25 1012.4 1012.5 0.0
26/06:00pm 10.7 3.4 7.0 78 1.8 NNW 35 44 19 24 1012.4 1012.5 0.0
26/05:30pm 10.7 3.6 6.6 76 1.9 NNW 33 44 18 24 1012.6 1012.7 0.0
26/05:00pm 10.7 3.6 6.5 75 2.0 NNW 33 43 18 23 1012.8 1012.9 0.0
26/04:30pm 10.8 3.2 6.0 72 2.2 NNW 35 44 19 24 1012.9 1013.0 0.0
26/04:00pm 10.7 3.1 5.7 71 2.3 NNW 35 44 19 24 1013.1 1013.2 0.0
26/03:30pm 10.8 3.8 5.8 71 2.3 NW 32 43 17 23 1013.2 1013.3 0.0
26/03:00pm 10.9 3.6 5.4 69 2.5 NW 33 43 18 23 1013.2 1013.3 0.0
26/02:30pm 11.1 4.0 6.3 72 2.3 NNW 33 43 18 23 1013.4 1013.5 0.0
26/02:00pm 11.0 3.9 6.2 72 2.3 NNW 33 43 18 23 1013.7 1013.8 0.0
26/01:30pm 11.0 3.8 6.0 71 2.3 NNW 33 43 18 23 1013.9 1014.0 0.0
26/01:00pm 11.4 3.9 6.5 72 2.3 NNW 35 44 19 24 1014.3 1014.4 0.0
26/12:30pm 11.1 3.5 5.6 69 2.5 NNW 35 44 19 24 1014.5 1014.6 0.0
26/12:00pm 11.5 4.3 5.8 68 2.7 NW 33 43 18 23 1015.0 1015.1 0.0
26/11:30am 11.8 4.4 6.7 71 2.4 NNW 35 48 19 26 1015.6 1015.7 0.0
26/11:00am 12.0 5.1 7.3 73 2.3 NNW 33 43 18 23 1016.1 1016.2 0.0
26/10:36am 11.8 5.0 6.7 71 2.4 NW 32 50 17 27 1016.4 1016.5 0.0
26/10:30am 11.3 3.7 6.0 70 2.5 NNW 35 50 19 27 1016.4 1016.5 0.0
26/10:00am 11.6 4.3 7.1 74 2.2 NW 35 48 19 26 1016.6 1016.7 0.0
26/09:30am 11.5 4.5 6.8 73 2.2 NW 33 44 18 24 1016.7 1016.8 0.0
26/09:00am 11.5 3.7 6.6 72 2.3 NW 37 46 20 25 1016.7 1016.8 1.8
26/08:30am 11.3 4.2 6.4 72 2.3 NW 33 46 18 25 1016.7 1016.8 1.8
26/08:00am 11.0 3.4 6.0 71 2.3 NW 35 44 19 24 1016.8 1016.9 1.8
26/07:30am 11.3 4.3 6.0 70 2.5 WNW 32 43 17 23 1016.9 1017.0 1.8
26/07:00am 11.3 3.7 6.0 70 2.5 WNW 35 50 19 27 1016.7 1016.8 1.8
26/06:30am 11.5 4.0 6.4 71 2.4 WNW 35 46 19 25 1016.7 1016.8 1.8
26/06:00am 11.3 3.7 5.8 69 2.6 WNW 35 46 19 25 1016.6 1016.7 1.8
26/05:30am 11.4 3.5 6.1 70 2.5 WNW 37 50 20 27 1016.6 1016.7 1.8
26/05:00am 11.6 4.6 6.7 72 2.3 WNW 33 44 18 24 1016.7 1016.8 1.8
26/04:30am 11.4 4.4 6.9 74 2.2 WNW 33 41 18 22 1016.8 1016.9 1.8
26/04:00am 11.1 4.5 7.8 80 1.6 WNW 32 44 17 24 1017.0 1017.1 1.8
26/03:30am 11.1 4.9 7.8 80 1.6 WNW 30 37 16 20 1017.2 1017.3 1.8
26/03:00am 11.1 5.3 8.0 81 1.5 WNW 28 48 15 26 1017.3 1017.4 1.8
26/02:30am 11.0 5.2 8.1 82 1.4 WNW 28 35 15 19 1017.6 1017.7 1.8
26/02:00am 10.9 6.0 8.3 84 1.3 W 24 35 13 19 1017.8 1017.8 1.8
26/01:30am 10.6 4.9 8.2 85 1.2 W 28 41 15 22 1018.0 1018.0 1.8
26/01:00am 11.3 6.3 8.0 80 1.6 W 24 37 13 20 1018.1 1018.1 1.8
26/12:30am 11.0 5.9 7.7 80 1.6 W 24 35 13 19 1018.4 1018.4 1.8
26/12:00am 10.1 5.1 8.2 88 0.9 W 24 37 13 20 1018.6 1018.6 1.6
 
Date/Time
EST
Temp
°C
App
Temp
°C
Dew
Point
°C
Rel
Hum
%
Delta-T
°C
Wind Press
QNH
hPa
Press
MSL
hPa
Rain since
9am
mm
Dir  Spd
km/h
Gust
km/h
Spd
kts
Gust
kts
25/11:30pm 10.8 6.9 8.7 87 1.0 WSW 19 32 10 17 1018.6 1018.6 1.0
25/11:00pm 11.0 6.4 8.1 82 1.4 W 22 37 12 20 1018.8 1018.8 1.0
25/10:30pm 11.6 7.3 7.9 78 1.8 WSW 20 37 11 20 1018.9 1018.9 1.0
25/10:00pm 11.7 7.4 7.8 77 1.9 W 20 35 11 19 1019.0 1019.0 1.0
25/09:30pm 11.7 7.4 8.0 78 1.8 WSW 20 39 11 21 1019.0 1019.0 1.0
25/09:00pm 11.6 6.6 7.9 78 1.8 W 24 43 13 23 1019.2 1019.2 1.0
25/08:30pm 11.0 7.0 8.9 87 1.0 WSW 20 39 11 21 1019.3 1019.3 1.0
25/08:00pm 11.0 6.5 8.4 84 1.3 W 22 30 12 16 1019.5 1019.6 0.8

Other Formats:

Comma delimited format used in spreadsheet applications
http://www.bom.gov.au/fwo/IDT60801/IDT60801.95954.axf

JavaScript Object Notation format (JSON) in row-major order
http://www.bom.gov.au/fwo/IDT60801/IDT60801.95954.json